sensor_id;sensor_type;location;lat;lon;timestamp;temperature;humidity
23231;DHT22;11784;49.818;8.632;2022-08-16T00:00:39;23.50;74.90
23231;DHT22;11784;49.818;8.632;2022-08-16T00:03:06;23.50;73.80
23231;DHT22;11784;49.818;8.632;2022-08-16T00:05:32;23.50;74.20
23231;DHT22;11784;49.818;8.632;2022-08-16T00:07:57;23.50;73.70
23231;DHT22;11784;49.818;8.632;2022-08-16T00:10:26;23.50;73.00
23231;DHT22;11784;49.818;8.632;2022-08-16T00:12:52;23.50;73.30
23231;DHT22;11784;49.818;8.632;2022-08-16T00:15:22;23.40;73.90
23231;DHT22;11784;49.818;8.632;2022-08-16T00:17:47;23.50;74.00
23231;DHT22;11784;49.818;8.632;2022-08-16T00:20:13;23.40;74.10
23231;DHT22;11784;49.818;8.632;2022-08-16T00:22:41;23.40;73.90
23231;DHT22;11784;49.818;8.632;2022-08-16T00:25:10;23.40;74.20
23231;DHT22;11784;49.818;8.632;2022-08-16T00:27:36;23.40;73.80
23231;DHT22;11784;49.818;8.632;2022-08-16T00:30:03;23.40;74.30
23231;DHT22;11784;49.818;8.632;2022-08-16T00:32:29;23.40;74.30
23231;DHT22;11784;49.818;8.632;2022-08-16T00:34:54;23.40;74.20
23231;DHT22;11784;49.818;8.632;2022-08-16T00:37:24;23.40;74.20
23231;DHT22;11784;49.818;8.632;2022-08-16T00:39:50;23.40;74.30
23231;DHT22;11784;49.818;8.632;2022-08-16T00:42:16;23.40;74.90
23231;DHT22;11784;49.818;8.632;2022-08-16T00:44:48;23.40;75.10
23231;DHT22;11784;49.818;8.632;2022-08-16T00:47:17;23.40;73.60
23231;DHT22;11784;49.818;8.632;2022-08-16T00:49:43;23.40;74.20
23231;DHT22;11784;49.818;8.632;2022-08-16T00:52:09;23.40;74.70
23231;DHT22;11784;49.818;8.632;2022-08-16T00:54:35;23.30;75.10
23231;DHT22;11784;49.818;8.632;2022-08-16T00:57:02;23.30;75.70
23231;DHT22;11784;49.818;8.632;2022-08-16T00:59:31;23.40;75.60
23231;DHT22;11784;49.818;8.632;2022-08-16T01:01:58;23.30;74.80
23231;DHT22;11784;49.818;8.632;2022-08-16T01:04:25;23.30;74.70
23231;DHT22;11784;49.818;8.632;2022-08-16T01:06:51;23.30;75.40
23231;DHT22;11784;49.818;8.632;2022-08-16T01:09:17;23.30;75.10
23231;DHT22;11784;49.818;8.632;2022-08-16T01:11:44;23.30;75.50
23231;DHT22;11784;49.818;8.632;2022-08-16T01:14:42;23.30;75.10
23231;DHT22;11784;49.818;8.632;2022-08-16T01:17:11;23.30;75.70
23231;DHT22;11784;49.818;8.632;2022-08-16T01:19:45;23.20;76.40
23231;DHT22;11784;49.818;8.632;2022-08-16T01:22:21;23.20;75.80
23231;DHT22;11784;49.818;8.632;2022-08-16T01:24:53;23.20;76.30
23231;DHT22;11784;49.818;8.632;2022-08-16T01:27:43;23.20;76.50
23231;DHT22;11784;49.818;8.632;2022-08-16T01:30:20;23.20;75.20
23231;DHT22;11784;49.818;8.632;2022-08-16T01:32:47;23.10;76.40
23231;DHT22;11784;49.818;8.632;2022-08-16T01:38:18;23.10;76.30
23231;DHT22;11784;49.818;8.632;2022-08-16T01:40:44;23.10;77.00
23231;DHT22;11784;49.818;8.632;2022-08-16T01:43:09;23.10;76.50
23231;DHT22;11784;49.818;8.632;2022-08-16T01:45:35;23.00;76.80
23231;DHT22;11784;49.818;8.632;2022-08-16T01:48:01;23.00;75.80
23231;DHT22;11784;49.818;8.632;2022-08-16T01:50:27;23.00;76.00
23231;DHT22;11784;49.818;8.632;2022-08-16T01:52:53;23.00;76.10
23231;DHT22;11784;49.818;8.632;2022-08-16T01:55:21;23.00;75.80
23231;DHT22;11784;49.818;8.632;2022-08-16T01:57:47;23.00;75.90
23231;DHT22;11784;49.818;8.632;2022-08-16T02:00:13;23.00;75.80
23231;DHT22;11784;49.818;8.632;2022-08-16T02:02:40;23.00;75.30
23231;DHT22;11784;49.818;8.632;2022-08-16T02:05:06;23.00;75.90
23231;DHT22;11784;49.818;8.632;2022-08-16T02:07:32;23.00;75.40
23231;DHT22;11784;49.818;8.632;2022-08-16T02:09:57;23.00;75.90
23231;DHT22;11784;49.818;8.632;2022-08-16T02:12:23;23.00;76.30
23231;DHT22;11784;49.818;8.632;2022-08-16T02:14:49;23.00;76.10
23231;DHT22;11784;49.818;8.632;2022-08-16T02:17:15;22.90;76.20
23231;DHT22;11784;49.818;8.632;2022-08-16T02:19:42;22.90;76.90
23231;DHT22;11784;49.818;8.632;2022-08-16T02:22:11;22.90;76.20
23231;DHT22;11784;49.818;8.632;2022-08-16T02:24:38;23.00;76.30
23231;DHT22;11784;49.818;8.632;2022-08-16T02:27:04;22.90;76.30
23231;DHT22;11784;49.818;8.632;2022-08-16T02:29:30;22.90;77.40
23231;DHT22;11784;49.818;8.632;2022-08-16T02:31:55;22.90;77.50
23231;DHT22;11784;49.818;8.632;2022-08-16T02:34:21;22.90;77.20
23231;DHT22;11784;49.818;8.632;2022-08-16T02:36:47;22.90;77.30
23231;DHT22;11784;49.818;8.632;2022-08-16T02:39:14;22.90;77.50
23231;DHT22;11784;49.818;8.632;2022-08-16T02:41:43;22.90;77.60
23231;DHT22;11784;49.818;8.632;2022-08-16T02:44:10;22.90;77.60
23231;DHT22;11784;49.818;8.632;2022-08-16T02:46:36;22.90;77.60
23231;DHT22;11784;49.818;8.632;2022-08-16T02:49:03;22.90;77.80
23231;DHT22;11784;49.818;8.632;2022-08-16T02:51:29;22.90;77.50
23231;DHT22;11784;49.818;8.632;2022-08-16T02:53:54;22.90;76.90
23231;DHT22;11784;49.818;8.632;2022-08-16T02:56:20;22.90;77.10
23231;DHT22;11784;49.818;8.632;2022-08-16T02:58:47;22.90;77.30
23231;DHT22;11784;49.818;8.632;2022-08-16T03:01:15;22.90;77.60
23231;DHT22;11784;49.818;8.632;2022-08-16T03:03:41;22.90;77.30
23231;DHT22;11784;49.818;8.632;2022-08-16T03:06:07;22.80;77.00
23231;DHT22;11784;49.818;8.632;2022-08-16T03:08:33;22.80;77.70
23231;DHT22;11784;49.818;8.632;2022-08-16T03:10:59;22.80;77.90
23231;DHT22;11784;49.818;8.632;2022-08-16T03:13:24;22.80;78.10
23231;DHT22;11784;49.818;8.632;2022-08-16T03:15:50;22.80;77.90
23231;DHT22;11784;49.818;8.632;2022-08-16T03:18:16;22.80;77.70
23231;DHT22;11784;49.818;8.632;2022-08-16T03:20:42;22.80;78.00
23231;DHT22;11784;49.818;8.632;2022-08-16T03:23:08;22.80;77.80
23231;DHT22;11784;49.818;8.632;2022-08-16T03:25:34;22.80;78.00
23231;DHT22;11784;49.818;8.632;2022-08-16T03:28:01;22.80;78.20
23231;DHT22;11784;49.818;8.632;2022-08-16T03:30:29;22.80;78.10
23231;DHT22;11784;49.818;8.632;2022-08-16T03:32:55;22.80;78.30
23231;DHT22;11784;49.818;8.632;2022-08-16T03:35:24;22.70;77.70
23231;DHT22;11784;49.818;8.632;2022-08-16T03:37:58;22.70;78.50
23231;DHT22;11784;49.818;8.632;2022-08-16T03:40:25;22.70;78.40
23231;DHT22;11784;49.818;8.632;2022-08-16T03:42:52;22.70;77.80
23231;DHT22;11784;49.818;8.632;2022-08-16T03:45:17;22.70;78.20
23231;DHT22;11784;49.818;8.632;2022-08-16T03:47:45;22.70;78.50
23231;DHT22;11784;49.818;8.632;2022-08-16T03:50:11;22.70;78.70
23231;DHT22;11784;49.818;8.632;2022-08-16T03:52:39;22.70;78.70
23231;DHT22;11784;49.818;8.632;2022-08-16T03:55:05;22.70;78.40
23231;DHT22;11784;49.818;8.632;2022-08-16T03:57:30;22.70;79.00
23231;DHT22;11784;49.818;8.632;2022-08-16T03:59:56;22.70;78.90
23231;DHT22;11784;49.818;8.632;2022-08-16T04:02:22;22.60;79.40
23231;DHT22;11784;49.818;8.632;2022-08-16T04:04:48;22.60;78.80
23231;DHT22;11784;49.818;8.632;2022-08-16T04:07:14;22.60;78.90
23231;DHT22;11784;49.818;8.632;2022-08-16T04:09:40;22.60;78.90
23231;DHT22;11784;49.818;8.632;2022-08-16T04:12:07;22.60;78.90
23231;DHT22;11784;49.818;8.632;2022-08-16T04:14:33;22.60;78.80
23231;DHT22;11784;49.818;8.632;2022-08-16T04:16:58;22.50;78.90
23231;DHT22;11784;49.818;8.632;2022-08-16T04:19:25;22.50;78.60
23231;DHT22;11784;49.818;8.632;2022-08-16T04:21:51;22.50;79.60
23231;DHT22;11784;49.818;8.632;2022-08-16T04:24:17;22.50;79.10
23231;DHT22;11784;49.818;8.632;2022-08-16T04:26:43;22.50;79.50
23231;DHT22;11784;49.818;8.632;2022-08-16T04:29:08;22.50;79.50
23231;DHT22;11784;49.818;8.632;2022-08-16T04:31:34;22.50;79.50
23231;DHT22;11784;49.818;8.632;2022-08-16T04:33:59;22.50;79.10
23231;DHT22;11784;49.818;8.632;2022-08-16T04:36:26;22.40;79.10
23231;DHT22;11784;49.818;8.632;2022-08-16T04:38:52;22.40;78.80
23231;DHT22;11784;49.818;8.632;2022-08-16T04:41:19;22.40;78.70
23231;DHT22;11784;49.818;8.632;2022-08-16T04:43:44;22.40;79.00
23231;DHT22;11784;49.818;8.632;2022-08-16T04:46:10;22.40;79.20
23231;DHT22;11784;49.818;8.632;2022-08-16T04:48:38;22.40;79.40
23231;DHT22;11784;49.818;8.632;2022-08-16T04:51:04;22.40;79.10
23231;DHT22;11784;49.818;8.632;2022-08-16T04:53:29;22.40;78.90
23231;DHT22;11784;49.818;8.632;2022-08-16T04:55:55;22.40;79.20
23231;DHT22;11784;49.818;8.632;2022-08-16T04:58:20;22.40;79.40
23231;DHT22;11784;49.818;8.632;2022-08-16T05:00:46;22.40;79.70
23231;DHT22;11784;49.818;8.632;2022-08-16T05:03:12;22.40;79.50
23231;DHT22;11784;49.818;8.632;2022-08-16T05:05:39;22.40;79.70
23231;DHT22;11784;49.818;8.632;2022-08-16T05:08:06;22.40;79.30
23231;DHT22;11784;49.818;8.632;2022-08-16T05:10:31;22.40;79.10
23231;DHT22;11784;49.818;8.632;2022-08-16T05:12:58;22.40;78.50
23231;DHT22;11784;49.818;8.632;2022-08-16T05:15:25;22.40;77.80
23231;DHT22;11784;49.818;8.632;2022-08-16T05:17:52;22.40;78.40
23231;DHT22;11784;49.818;8.632;2022-08-16T05:20:18;22.30;78.00
23231;DHT22;11784;49.818;8.632;2022-08-16T05:22:43;22.40;78.70
23231;DHT22;11784;49.818;8.632;2022-08-16T05:25:10;22.40;78.90
23231;DHT22;11784;49.818;8.632;2022-08-16T05:27:37;22.40;80.00
23231;DHT22;11784;49.818;8.632;2022-08-16T05:30:05;22.40;79.90
23231;DHT22;11784;49.818;8.632;2022-08-16T05:32:31;22.50;79.80
23231;DHT22;11784;49.818;8.632;2022-08-16T05:34:56;22.50;79.50
23231;DHT22;11784;49.818;8.632;2022-08-16T05:37:22;22.60;79.20
23231;DHT22;11784;49.818;8.632;2022-08-16T05:39:49;22.60;78.90
23231;DHT22;11784;49.818;8.632;2022-08-16T05:42:14;22.60;78.60
23231;DHT22;11784;49.818;8.632;2022-08-16T05:44:40;22.70;78.20
23231;DHT22;11784;49.818;8.632;2022-08-16T05:47:06;22.70;78.40
23231;DHT22;11784;49.818;8.632;2022-08-16T05:49:31;22.80;76.90
23231;DHT22;11784;49.818;8.632;2022-08-16T05:51:57;22.80;78.10
23231;DHT22;11784;49.818;8.632;2022-08-16T05:54:25;22.80;77.60
23231;DHT22;11784;49.818;8.632;2022-08-16T05:56:55;22.90;77.00
23231;DHT22;11784;49.818;8.632;2022-08-16T05:59:21;22.90;77.30
23231;DHT22;11784;49.818;8.632;2022-08-16T06:01:47;22.90;77.20
23231;DHT22;11784;49.818;8.632;2022-08-16T06:04:15;23.00;76.60
23231;DHT22;11784;49.818;8.632;2022-08-16T06:06:42;23.00;76.60
23231;DHT22;11784;49.818;8.632;2022-08-16T06:09:09;23.00;76.70
23231;DHT22;11784;49.818;8.632;2022-08-16T06:11:34;23.00;76.70
23231;DHT22;11784;49.818;8.632;2022-08-16T06:14:00;23.00;76.80
23231;DHT22;11784;49.818;8.632;2022-08-16T06:16:26;23.10;76.20
23231;DHT22;11784;49.818;8.632;2022-08-16T06:18:51;23.10;76.10
23231;DHT22;11784;49.818;8.632;2022-08-16T06:21:17;23.10;76.00
23231;DHT22;11784;49.818;8.632;2022-08-16T06:23:42;23.20;75.90
23231;DHT22;11784;49.818;8.632;2022-08-16T06:26:08;23.20;75.80
23231;DHT22;11784;49.818;8.632;2022-08-16T06:28:33;23.30;75.90
23231;DHT22;11784;49.818;8.632;2022-08-16T06:31:00;23.30;75.70
23231;DHT22;11784;49.818;8.632;2022-08-16T06:33:25;23.30;75.70
23231;DHT22;11784;49.818;8.632;2022-08-16T06:35:52;23.30;75.30
23231;DHT22;11784;49.818;8.632;2022-08-16T06:38:18;23.40;75.80
23231;DHT22;11784;49.818;8.632;2022-08-16T06:40:44;23.40;75.60
23231;DHT22;11784;49.818;8.632;2022-08-16T06:43:09;23.40;75.20
23231;DHT22;11784;49.818;8.632;2022-08-16T06:45:35;23.40;75.10
23231;DHT22;11784;49.818;8.632;2022-08-16T06:48:05;23.50;75.50
23231;DHT22;11784;49.818;8.632;2022-08-16T06:50:32;23.50;75.20
23231;DHT22;11784;49.818;8.632;2022-08-16T06:52:58;23.50;74.50
23231;DHT22;11784;49.818;8.632;2022-08-16T06:55:23;23.50;74.50
23231;DHT22;11784;49.818;8.632;2022-08-16T06:57:50;23.60;74.30
23231;DHT22;11784;49.818;8.632;2022-08-16T07:00:16;23.60;73.80
23231;DHT22;11784;49.818;8.632;2022-08-16T07:02:43;23.60;74.20
23231;DHT22;11784;49.818;8.632;2022-08-16T07:05:11;23.70;74.40
23231;DHT22;11784;49.818;8.632;2022-08-16T07:07:38;23.70;73.50
23231;DHT22;11784;49.818;8.632;2022-08-16T07:10:06;23.70;73.00
23231;DHT22;11784;49.818;8.632;2022-08-16T07:12:32;23.70;73.30
23231;DHT22;11784;49.818;8.632;2022-08-16T07:14:58;23.70;73.50
23231;DHT22;11784;49.818;8.632;2022-08-16T07:17:28;23.70;73.70
23231;DHT22;11784;49.818;8.632;2022-08-16T07:19:54;23.70;74.40
23231;DHT22;11784;49.818;8.632;2022-08-16T07:22:21;23.80;74.20
23231;DHT22;11784;49.818;8.632;2022-08-16T07:24:47;23.80;72.90
23231;DHT22;11784;49.818;8.632;2022-08-16T07:27:13;23.80;73.20
23231;DHT22;11784;49.818;8.632;2022-08-16T07:29:39;23.80;73.20
23231;DHT22;11784;49.818;8.632;2022-08-16T07:32:05;23.80;73.40
23231;DHT22;11784;49.818;8.632;2022-08-16T07:34:31;23.80;73.80
23231;DHT22;11784;49.818;8.632;2022-08-16T07:36:59;23.80;73.90
23231;DHT22;11784;49.818;8.632;2022-08-16T07:39:25;23.90;73.60
23231;DHT22;11784;49.818;8.632;2022-08-16T07:41:50;23.90;73.50
23231;DHT22;11784;49.818;8.632;2022-08-16T07:44:16;23.90;73.30
23231;DHT22;11784;49.818;8.632;2022-08-16T07:46:41;24.00;73.20
23231;DHT22;11784;49.818;8.632;2022-08-16T07:49:07;24.00;73.60
23231;DHT22;11784;49.818;8.632;2022-08-16T07:51:34;24.10;73.80
23231;DHT22;11784;49.818;8.632;2022-08-16T07:54:02;24.10;73.20
23231;DHT22;11784;49.818;8.632;2022-08-16T07:56:29;24.20;73.20
23231;DHT22;11784;49.818;8.632;2022-08-16T07:58:55;24.20;73.10
23231;DHT22;11784;49.818;8.632;2022-08-16T08:01:21;24.30;72.50
23231;DHT22;11784;49.818;8.632;2022-08-16T08:03:50;24.40;71.90
23231;DHT22;11784;49.818;8.632;2022-08-16T08:06:18;24.40;71.90
23231;DHT22;11784;49.818;8.632;2022-08-16T08:08:44;24.40;71.80
23231;DHT22;11784;49.818;8.632;2022-08-16T08:11:10;24.50;72.20
23231;DHT22;11784;49.818;8.632;2022-08-16T08:13:37;24.60;71.60
23231;DHT22;11784;49.818;8.632;2022-08-16T08:16:02;24.60;70.70
23231;DHT22;11784;49.818;8.632;2022-08-16T08:18:28;24.60;70.20
23231;DHT22;11784;49.818;8.632;2022-08-16T08:20:54;24.60;71.00
23231;DHT22;11784;49.818;8.632;2022-08-16T08:23:21;24.70;71.00
23231;DHT22;11784;49.818;8.632;2022-08-16T08:25:47;24.70;70.00
23231;DHT22;11784;49.818;8.632;2022-08-16T08:28:13;24.70;69.90
23231;DHT22;11784;49.818;8.632;2022-08-16T08:30:39;24.70;70.70
23231;DHT22;11784;49.818;8.632;2022-08-16T08:33:05;24.80;70.70
23231;DHT22;11784;49.818;8.632;2022-08-16T08:35:31;24.80;70.60
23231;DHT22;11784;49.818;8.632;2022-08-16T08:37:57;24.90;70.10
23231;DHT22;11784;49.818;8.632;2022-08-16T08:40:24;25.00;69.30
23231;DHT22;11784;49.818;8.632;2022-08-16T08:42:50;25.00;68.90
23231;DHT22;11784;49.818;8.632;2022-08-16T08:45:17;25.10;68.20
23231;DHT22;11784;49.818;8.632;2022-08-16T08:47:43;25.10;68.40
23231;DHT22;11784;49.818;8.632;2022-08-16T08:50:13;25.10;68.20
23231;DHT22;11784;49.818;8.632;2022-08-16T08:52:41;25.10;67.90
23231;DHT22;11784;49.818;8.632;2022-08-16T08:55:09;25.20;68.80
23231;DHT22;11784;49.818;8.632;2022-08-16T08:57:35;25.20;69.80
23231;DHT22;11784;49.818;8.632;2022-08-16T09:00:00;25.30;67.90
23231;DHT22;11784;49.818;8.632;2022-08-16T09:02:27;25.30;67.00
23231;DHT22;11784;49.818;8.632;2022-08-16T09:04:53;25.30;66.60
23231;DHT22;11784;49.818;8.632;2022-08-16T09:07:18;25.30;66.80
23231;DHT22;11784;49.818;8.632;2022-08-16T09:09:46;25.40;67.60
23231;DHT22;11784;49.818;8.632;2022-08-16T09:12:11;25.50;66.60
23231;DHT22;11784;49.818;8.632;2022-08-16T09:14:37;25.50;66.60
23231;DHT22;11784;49.818;8.632;2022-08-16T09:17:05;25.60;65.30
23231;DHT22;11784;49.818;8.632;2022-08-16T09:19:32;25.70;65.20
23231;DHT22;11784;49.818;8.632;2022-08-16T09:21:58;25.70;65.10
23231;DHT22;11784;49.818;8.632;2022-08-16T09:24:23;25.70;65.40
23231;DHT22;11784;49.818;8.632;2022-08-16T09:26:49;25.80;65.00
23231;DHT22;11784;49.818;8.632;2022-08-16T09:29:14;25.80;65.10
23231;DHT22;11784;49.818;8.632;2022-08-16T09:31:40;25.80;64.80
23231;DHT22;11784;49.818;8.632;2022-08-16T09:34:06;25.80;64.90
23231;DHT22;11784;49.818;8.632;2022-08-16T09:36:31;25.80;64.60
23231;DHT22;11784;49.818;8.632;2022-08-16T09:38:57;25.90;64.30
23231;DHT22;11784;49.818;8.632;2022-08-16T09:41:23;25.90;63.80
23231;DHT22;11784;49.818;8.632;2022-08-16T09:43:48;25.90;63.80
23231;DHT22;11784;49.818;8.632;2022-08-16T09:46:14;26.00;63.30
23231;DHT22;11784;49.818;8.632;2022-08-16T09:48:40;26.10;64.40
23231;DHT22;11784;49.818;8.632;2022-08-16T09:51:10;26.20;62.70
23231;DHT22;11784;49.818;8.632;2022-08-16T09:53:36;26.20;62.20
23231;DHT22;11784;49.818;8.632;2022-08-16T09:56:04;26.20;62.70
23231;DHT22;11784;49.818;8.632;2022-08-16T09:58:32;26.30;62.80
23231;DHT22;11784;49.818;8.632;2022-08-16T10:00:57;26.30;62.20
23231;DHT22;11784;49.818;8.632;2022-08-16T10:03:23;26.30;62.00
23231;DHT22;11784;49.818;8.632;2022-08-16T10:05:49;26.40;62.10
23231;DHT22;11784;49.818;8.632;2022-08-16T10:08:15;26.40;62.20
23231;DHT22;11784;49.818;8.632;2022-08-16T10:10:42;26.40;62.20
23231;DHT22;11784;49.818;8.632;2022-08-16T10:13:28;26.40;61.20
23231;DHT22;11784;49.818;8.632;2022-08-16T10:15:54;26.50;62.20
23231;DHT22;11784;49.818;8.632;2022-08-16T10:18:28;26.60;62.80
23231;DHT22;11784;49.818;8.632;2022-08-16T10:20:56;26.60;61.30
23231;DHT22;11784;49.818;8.632;2022-08-16T10:23:23;26.70;60.00
23231;DHT22;11784;49.818;8.632;2022-08-16T10:25:48;26.70;60.40
23231;DHT22;11784;49.818;8.632;2022-08-16T10:28:14;26.70;60.30
23231;DHT22;11784;49.818;8.632;2022-08-16T10:30:42;26.60;59.90
23231;DHT22;11784;49.818;8.632;2022-08-16T10:33:13;26.70;61.10
23231;DHT22;11784;49.818;8.632;2022-08-16T10:35:43;26.70;62.70
23231;DHT22;11784;49.818;8.632;2022-08-16T10:38:09;26.70;61.80
23231;DHT22;11784;49.818;8.632;2022-08-16T10:40:35;26.80;61.40
23231;DHT22;11784;49.818;8.632;2022-08-16T10:43:01;26.80;59.10
23231;DHT22;11784;49.818;8.632;2022-08-16T10:45:30;26.80;59.80
23231;DHT22;11784;49.818;8.632;2022-08-16T10:47:56;26.80;59.30
23231;DHT22;11784;49.818;8.632;2022-08-16T10:50:22;26.80;59.50
23231;DHT22;11784;49.818;8.632;2022-08-16T10:52:48;26.80;59.30
23231;DHT22;11784;49.818;8.632;2022-08-16T10:55:13;26.80;59.20
23231;DHT22;11784;49.818;8.632;2022-08-16T10:57:39;26.80;59.00
23231;DHT22;11784;49.818;8.632;2022-08-16T11:00:08;26.80;59.80
23231;DHT22;11784;49.818;8.632;2022-08-16T11:02:37;26.70;59.50
23231;DHT22;11784;49.818;8.632;2022-08-16T11:05:04;26.70;59.80
23231;DHT22;11784;49.818;8.632;2022-08-16T11:07:30;26.70;59.10
23231;DHT22;11784;49.818;8.632;2022-08-16T11:09:55;26.70;58.70
23231;DHT22;11784;49.818;8.632;2022-08-16T11:12:23;26.70;58.70
23231;DHT22;11784;49.818;8.632;2022-08-16T11:14:48;26.70;59.40
23231;DHT22;11784;49.818;8.632;2022-08-16T11:17:14;26.70;59.40
23231;DHT22;11784;49.818;8.632;2022-08-16T11:19:39;26.70;59.30
23231;DHT22;11784;49.818;8.632;2022-08-16T11:22:06;26.70;58.90
23231;DHT22;11784;49.818;8.632;2022-08-16T11:24:32;26.70;60.10
23231;DHT22;11784;49.818;8.632;2022-08-16T11:26:59;26.80;58.70
23231;DHT22;11784;49.818;8.632;2022-08-16T11:29:24;26.80;58.30
23231;DHT22;11784;49.818;8.632;2022-08-16T11:31:50;26.80;57.70
23231;DHT22;11784;49.818;8.632;2022-08-16T11:34:16;26.80;57.20
23231;DHT22;11784;49.818;8.632;2022-08-16T11:36:42;26.80;57.90
23231;DHT22;11784;49.818;8.632;2022-08-16T11:39:08;26.80;59.00
23231;DHT22;11784;49.818;8.632;2022-08-16T11:41:33;26.80;58.30
23231;DHT22;11784;49.818;8.632;2022-08-16T11:44:03;26.80;58.10
23231;DHT22;11784;49.818;8.632;2022-08-16T11:46:29;26.90;57.70
23231;DHT22;11784;49.818;8.632;2022-08-16T11:48:55;26.90;58.20
23231;DHT22;11784;49.818;8.632;2022-08-16T11:51:21;27.00;57.90
23231;DHT22;11784;49.818;8.632;2022-08-16T11:53:47;27.00;56.80
23231;DHT22;11784;49.818;8.632;2022-08-16T11:56:12;27.10;57.10
23231;DHT22;11784;49.818;8.632;2022-08-16T11:58:38;27.20;56.60
23231;DHT22;11784;49.818;8.632;2022-08-16T12:01:04;27.20;56.50
23231;DHT22;11784;49.818;8.632;2022-08-16T12:03:30;27.20;56.50
23231;DHT22;11784;49.818;8.632;2022-08-16T12:05:57;27.30;57.30
23231;DHT22;11784;49.818;8.632;2022-08-16T12:08:23;27.30;55.90
23231;DHT22;11784;49.818;8.632;2022-08-16T12:10:49;27.40;56.50
23231;DHT22;11784;49.818;8.632;2022-08-16T12:13:16;27.40;55.80
23231;DHT22;11784;49.818;8.632;2022-08-16T12:15:41;27.50;55.70
23231;DHT22;11784;49.818;8.632;2022-08-16T12:18:07;27.60;55.90
23231;DHT22;11784;49.818;8.632;2022-08-16T12:20:41;27.70;56.00
23231;DHT22;11784;49.818;8.632;2022-08-16T12:23:08;27.80;55.00
23231;DHT22;11784;49.818;8.632;2022-08-16T12:25:35;27.90;55.10
23231;DHT22;11784;49.818;8.632;2022-08-16T12:28:03;27.90;55.50
23231;DHT22;11784;49.818;8.632;2022-08-16T12:30:32;28.00;53.70
23231;DHT22;11784;49.818;8.632;2022-08-16T12:32:59;28.00;56.00
23231;DHT22;11784;49.818;8.632;2022-08-16T12:35:27;28.10;53.80
23231;DHT22;11784;49.818;8.632;2022-08-16T12:37:58;28.20;52.80
23231;DHT22;11784;49.818;8.632;2022-08-16T12:40:27;28.20;53.80
23231;DHT22;11784;49.818;8.632;2022-08-16T12:42:57;28.30;53.80
23231;DHT22;11784;49.818;8.632;2022-08-16T12:45:25;28.30;53.60
23231;DHT22;11784;49.818;8.632;2022-08-16T12:47:51;28.30;52.50
23231;DHT22;11784;49.818;8.632;2022-08-16T12:50:35;28.40;52.50
23231;DHT22;11784;49.818;8.632;2022-08-16T12:53:01;28.40;53.30
23231;DHT22;11784;49.818;8.632;2022-08-16T12:55:27;28.50;52.30
23231;DHT22;11784;49.818;8.632;2022-08-16T12:57:56;28.60;51.90
23231;DHT22;11784;49.818;8.632;2022-08-16T13:00:24;28.60;50.90
23231;DHT22;11784;49.818;8.632;2022-08-16T13:02:52;28.60;51.00
23231;DHT22;11784;49.818;8.632;2022-08-16T13:05:18;28.70;51.60
23231;DHT22;11784;49.818;8.632;2022-08-16T13:07:44;28.70;51.30
23231;DHT22;11784;49.818;8.632;2022-08-16T13:10:12;28.80;52.40
23231;DHT22;11784;49.818;8.632;2022-08-16T13:12:46;28.90;50.60
23231;DHT22;11784;49.818;8.632;2022-08-16T13:15:15;29.10;50.20
23231;DHT22;11784;49.818;8.632;2022-08-16T13:17:42;29.30;50.70
23231;DHT22;11784;49.818;8.632;2022-08-16T13:20:12;29.60;49.50
23231;DHT22;11784;49.818;8.632;2022-08-16T13:22:44;30.00;48.90
23231;DHT22;11784;49.818;8.632;2022-08-16T13:25:12;30.40;48.70
23231;DHT22;11784;49.818;8.632;2022-08-16T13:27:38;31.00;48.40
23231;DHT22;11784;49.818;8.632;2022-08-16T13:30:04;31.60;46.80
23231;DHT22;11784;49.818;8.632;2022-08-16T13:32:30;32.30;46.40
23231;DHT22;11784;49.818;8.632;2022-08-16T13:34:55;32.90;44.50
23231;DHT22;11784;49.818;8.632;2022-08-16T13:37:21;33.60;42.60
23231;DHT22;11784;49.818;8.632;2022-08-16T13:39:47;34.20;41.40
23231;DHT22;11784;49.818;8.632;2022-08-16T13:42:12;34.70;41.20
23231;DHT22;11784;49.818;8.632;2022-08-16T13:44:38;35.10;39.50
23231;DHT22;11784;49.818;8.632;2022-08-16T13:47:05;35.30;38.80
23231;DHT22;11784;49.818;8.632;2022-08-16T13:49:32;35.50;38.80
23231;DHT22;11784;49.818;8.632;2022-08-16T13:51:58;35.80;40.20
23231;DHT22;11784;49.818;8.632;2022-08-16T13:54:23;36.20;38.00
23231;DHT22;11784;49.818;8.632;2022-08-16T13:56:49;37.00;36.20
23231;DHT22;11784;49.818;8.632;2022-08-16T13:59:14;38.00;35.60
23231;DHT22;11784;49.818;8.632;2022-08-16T14:01:41;38.60;32.90
23231;DHT22;11784;49.818;8.632;2022-08-16T14:04:08;38.60;32.20
23231;DHT22;11784;49.818;8.632;2022-08-16T14:06:34;38.80;32.40
23231;DHT22;11784;49.818;8.632;2022-08-16T14:08:59;39.20;33.10
23231;DHT22;11784;49.818;8.632;2022-08-16T14:11:25;39.80;31.70
23231;DHT22;11784;49.818;8.632;2022-08-16T14:13:51;40.50;30.70
23231;DHT22;11784;49.818;8.632;2022-08-16T14:16:16;41.10;29.10
23231;DHT22;11784;49.818;8.632;2022-08-16T14:18:42;41.60;29.20
23231;DHT22;11784;49.818;8.632;2022-08-16T14:21:08;42.00;28.30
23231;DHT22;11784;49.818;8.632;2022-08-16T14:23:34;42.20;28.50
23231;DHT22;11784;49.818;8.632;2022-08-16T14:25:59;42.40;29.00
23231;DHT22;11784;49.818;8.632;2022-08-16T14:28:25;42.40;29.40
23231;DHT22;11784;49.818;8.632;2022-08-16T14:30:51;42.30;27.70
23231;DHT22;11784;49.818;8.632;2022-08-16T14:33:16;42.10;28.70
23231;DHT22;11784;49.818;8.632;2022-08-16T14:35:42;41.90;28.80
23231;DHT22;11784;49.818;8.632;2022-08-16T14:38:07;41.70;29.20
23231;DHT22;11784;49.818;8.632;2022-08-16T14:40:33;41.20;28.80
23231;DHT22;11784;49.818;8.632;2022-08-16T14:43:00;40.80;30.70
23231;DHT22;11784;49.818;8.632;2022-08-16T14:45:27;40.10;29.70
23231;DHT22;11784;49.818;8.632;2022-08-16T14:47:53;39.40;30.00
23231;DHT22;11784;49.818;8.632;2022-08-16T14:50:22;38.60;30.30
23231;DHT22;11784;49.818;8.632;2022-08-16T14:52:57;37.70;30.50
23231;DHT22;11784;49.818;8.632;2022-08-16T14:55:25;36.90;32.10
23231;DHT22;11784;49.818;8.632;2022-08-16T14:57:51;36.20;34.10
23231;DHT22;11784;49.818;8.632;2022-08-16T15:00:17;35.60;35.00
23231;DHT22;11784;49.818;8.632;2022-08-16T15:02:43;35.10;35.90
23231;DHT22;11784;49.818;8.632;2022-08-16T15:05:10;34.60;36.30
23231;DHT22;11784;49.818;8.632;2022-08-16T15:07:36;34.20;36.30
23231;DHT22;11784;49.818;8.632;2022-08-16T15:10:03;33.80;39.40
23231;DHT22;11784;49.818;8.632;2022-08-16T15:12:30;33.50;41.00
23231;DHT22;11784;49.818;8.632;2022-08-16T15:14:55;33.30;38.70
23231;DHT22;11784;49.818;8.632;2022-08-16T15:17:23;33.10;39.30
23231;DHT22;11784;49.818;8.632;2022-08-16T15:19:57;32.80;39.50
23231;DHT22;11784;49.818;8.632;2022-08-16T15:22:28;32.70;39.80
23231;DHT22;11784;49.818;8.632;2022-08-16T15:25:01;32.50;40.30
23231;DHT22;11784;49.818;8.632;2022-08-16T15:27:31;32.40;40.10
23231;DHT22;11784;49.818;8.632;2022-08-16T15:29:58;32.30;40.10